Terminal Aerodrome Forecast
Issued by NWS North Platte, NE

Home | Current Version | Previous Version | Graphics & Text | Print | Product List | Glossary On
Versions: 1 2 3 4 5 6 7 8 9 10 11 12 13 14 15 16
000
FTUS43 KLBF 190700 AAA
TAFVTN
TAF AMD
KVTN 190740Z 1908/2006 20010KT P6SM SCT011
      TEMPO 1908/1910 BKN011
     FM191200 21012KT P6SM SCT011
     FM191400 23011G16KT P6SM SKC=

USA.gov is the U.S. government's official web portal to all federal, state and local government web resources and services.